sensor_id;sensor_type;location;lat;lon;timestamp;pressure;altitude;pressure_sealevel;temperature;humidity
63447;BME280;49577;49.872;6.190;2024-01-30T00:00:54;100760.33;;;1.26;82.11
63447;BME280;49577;49.872;6.190;2024-01-30T00:03:19;100760.16;;;1.25;81.94
63447;BME280;49577;49.872;6.190;2024-01-30T00:05:45;100759.17;;;1.17;81.55
63447;BME280;49577;49.872;6.190;2024-01-30T00:08:10;100763.19;;;1.08;81.68
63447;BME280;49577;49.872;6.190;2024-01-30T00:10:35;100757.36;;;1.02;82.09
63447;BME280;49577;49.872;6.190;2024-01-30T00:13:01;100754.63;;;0.99;82.34
63447;BME280;49577;49.872;6.190;2024-01-30T00:15:27;100754.11;;;0.98;82.40
63447;BME280;49577;49.872;6.190;2024-01-30T00:17:52;100754.13;;;0.96;82.52
63447;BME280;49577;49.872;6.190;2024-01-30T00:20:17;100752.60;;;0.94;82.55
63447;BME280;49577;49.872;6.190;2024-01-30T00:22:42;100753.11;;;0.93;82.60
63447;BME280;49577;49.872;6.190;2024-01-30T00:25:08;100751.57;;;0.92;82.52
63447;BME280;49577;49.872;6.190;2024-01-30T00:27:33;100750.89;;;0.91;82.64
63447;BME280;49577;49.872;6.190;2024-01-30T00:29:58;100753.48;;;0.90;82.83
63447;BME280;49577;49.872;6.190;2024-01-30T00:32:23;100748.15;;;0.89;82.68
63447;BME280;49577;49.872;6.190;2024-01-30T00:34:49;100751.43;;;0.87;82.66
63447;BME280;49577;49.872;6.190;2024-01-30T00:37:14;100749.36;;;0.86;82.91
63447;BME280;49577;49.872;6.190;2024-01-30T00:39:39;100746.29;;;0.83;82.75
63447;BME280;49577;49.872;6.190;2024-01-30T00:42:05;100746.13;;;0.79;82.76
63447;BME280;49577;49.872;6.190;2024-01-30T00:44:30;100747.70;;;0.75;82.73
63447;BME280;49577;49.872;6.190;2024-01-30T00:46:55;100749.25;;;0.73;82.90
63447;BME280;49577;49.872;6.190;2024-01-30T00:49:20;100748.05;;;0.71;83.12
63447;BME280;49577;49.872;6.190;2024-01-30T00:51:46;100750.80;;;0.71;83.25
63447;BME280;49577;49.872;6.190;2024-01-30T00:54:11;100750.81;;;0.71;83.38
63447;BME280;49577;49.872;6.190;2024-01-30T00:56:36;100753.91;;;0.69;83.47
63447;BME280;49577;49.872;6.190;2024-01-30T00:59:01;100753.21;;;0.70;83.70
63447;BME280;49577;49.872;6.190;2024-01-30T01:01:27;100749.45;;;0.69;83.25
63447;BME280;49577;49.872;6.190;2024-01-30T01:03:52;100751.33;;;0.69;83.22
63447;BME280;49577;49.872;6.190;2024-01-30T01:06:17;100754.09;;;0.68;83.12
63447;BME280;49577;49.872;6.190;2024-01-30T01:08:42;100753.23;;;0.66;83.18
63447;BME280;49577;49.872;6.190;2024-01-30T01:11:07;100757.70;;;0.66;83.41
63447;BME280;49577;49.872;6.190;2024-01-30T01:13:33;100756.00;;;0.67;83.44
63447;BME280;49577;49.872;6.190;2024-01-30T01:15:58;100760.95;;;0.69;83.56
63447;BME280;49577;49.872;6.190;2024-01-30T01:18:23;100759.23;;;0.72;83.49
63447;BME280;49577;49.872;6.190;2024-01-30T01:20:48;100761.98;;;0.71;83.33
63447;BME280;49577;49.872;6.190;2024-01-30T01:23:14;100762.49;;;0.71;83.27
63447;BME280;49577;49.872;6.190;2024-01-30T01:25:39;100761.13;;;0.71;83.36
63447;BME280;49577;49.872;6.190;2024-01-30T01:28:04;100763.02;;;0.72;83.28
63447;BME280;49577;49.872;6.190;2024-01-30T01:30:30;100763.52;;;0.73;83.36
63447;BME280;49577;49.872;6.190;2024-01-30T01:32:55;100760.94;;;0.74;83.39
63447;BME280;49577;49.872;6.190;2024-01-30T01:35:24;100761.96;;;0.76;83.35
63447;BME280;49577;49.872;6.190;2024-01-30T01:37:50;100760.94;;;0.77;83.09
63447;BME280;49577;49.872;6.190;2024-01-30T01:40:23;100757.83;;;0.80;83.13
63447;BME280;49577;49.872;6.190;2024-01-30T01:42:49;100756.77;;;0.85;83.33
63447;BME280;49577;49.872;6.190;2024-01-30T01:45:15;100756.23;;;0.88;83.37
63447;BME280;49577;49.872;6.190;2024-01-30T01:47:40;100754.68;;;0.90;83.61
63447;BME280;49577;49.872;6.190;2024-01-30T01:50:06;100747.79;;;0.92;83.78
63447;BME280;49577;49.872;6.190;2024-01-30T01:52:31;100746.23;;;0.95;84.05
63447;BME280;49577;49.872;6.190;2024-01-30T01:54:57;100749.13;;;0.98;84.27
63447;BME280;49577;49.872;6.190;2024-01-30T01:57:22;100747.58;;;1.00;84.36
63447;BME280;49577;49.872;6.190;2024-01-30T01:59:47;100746.01;;;1.02;84.50
63447;BME280;49577;49.872;6.190;2024-01-30T02:02:13;100744.11;;;1.05;84.69
63447;BME280;49577;49.872;6.190;2024-01-30T02:04:40;100747.88;;;1.07;84.96
63447;BME280;49577;49.872;6.190;2024-01-30T02:07:06;100746.65;;;1.11;85.14
63447;BME280;49577;49.872;6.190;2024-01-30T02:09:31;100749.38;;;1.16;85.34
63447;BME280;49577;49.872;6.190;2024-01-30T02:11:57;100748.50;;;1.18;85.00
63447;BME280;49577;49.872;6.190;2024-01-30T02:14:22;100751.27;;;1.16;84.62
63447;BME280;49577;49.872;6.190;2024-01-30T02:16:47;100748.70;;;1.13;84.67
63447;BME280;49577;49.872;6.190;2024-01-30T02:19:12;100749.23;;;1.12;84.92
63447;BME280;49577;49.872;6.190;2024-01-30T02:21:37;100747.17;;;1.12;85.09
63447;BME280;49577;49.872;6.190;2024-01-30T02:24:03;100741.84;;;1.12;85.03
63447;BME280;49577;49.872;6.190;2024-01-30T02:26:28;100742.00;;;1.12;84.91
63447;BME280;49577;49.872;6.190;2024-01-30T02:28:53;100739.96;;;1.09;84.81
63447;BME280;49577;49.872;6.190;2024-01-30T02:31:19;100743.58;;;1.06;84.70
63447;BME280;49577;49.872;6.190;2024-01-30T02:33:44;100742.56;;;1.05;85.04
63447;BME280;49577;49.872;6.190;2024-01-30T02:36:09;100742.40;;;1.03;85.33
63447;BME280;49577;49.872;6.190;2024-01-30T02:38:34;100742.05;;;1.04;85.55
63447;BME280;49577;49.872;6.190;2024-01-30T02:41:00;100740.98;;;1.06;85.70
63447;BME280;49577;49.872;6.190;2024-01-30T02:43:25;100740.83;;;1.05;85.51
63447;BME280;49577;49.872;6.190;2024-01-30T02:45:50;100738.27;;;1.03;85.27
63447;BME280;49577;49.872;6.190;2024-01-30T02:48:15;100739.12;;;1.04;85.68
63447;BME280;49577;49.872;6.190;2024-01-30T02:50:41;100732.75;;;1.05;85.70
63447;BME280;49577;49.872;6.190;2024-01-30T02:53:06;100737.73;;;1.05;85.63
63447;BME280;49577;49.872;6.190;2024-01-30T02:55:31;100738.95;;;1.04;85.67
63447;BME280;49577;49.872;6.190;2024-01-30T02:57:56;100738.77;;;1.05;85.69
63447;BME280;49577;49.872;6.190;2024-01-30T03:00:21;100738.59;;;1.09;86.02
63447;BME280;49577;49.872;6.190;2024-01-30T03:02:47;100736.49;;;1.12;86.00
63447;BME280;49577;49.872;6.190;2024-01-30T03:05:12;100738.02;;;1.15;85.92
63447;BME280;49577;49.872;6.190;2024-01-30T03:07:37;100739.89;;;1.18;86.01
63447;BME280;49577;49.872;6.190;2024-01-30T03:10:03;100742.95;;;1.23;86.01
63447;BME280;49577;49.872;6.190;2024-01-30T03:12:29;100742.43;;;1.24;85.95
63447;BME280;49577;49.872;6.190;2024-01-30T03:14:54;100745.16;;;1.28;85.91
63447;BME280;49577;49.872;6.190;2024-01-30T03:17:19;100743.27;;;1.31;85.89
63447;BME280;49577;49.872;6.190;2024-01-30T03:19:45;100740.50;;;1.31;85.67
63447;BME280;49577;49.872;6.190;2024-01-30T03:22:10;100735.00;;;1.31;85.72
63447;BME280;49577;49.872;6.190;2024-01-30T03:24:35;100733.64;;;1.29;85.58
63447;BME280;49577;49.872;6.190;2024-01-30T03:27:00;100735.04;;;1.25;85.31
63447;BME280;49577;49.872;6.190;2024-01-30T03:29:26;100739.88;;;1.21;85.22
63447;BME280;49577;49.872;6.190;2024-01-30T03:31:51;100745.73;;;1.19;85.84
63447;BME280;49577;49.872;6.190;2024-01-30T03:34:16;100746.11;;;1.17;85.82
63447;BME280;49577;49.872;6.190;2024-01-30T03:36:42;100741.98;;;1.15;85.79
63447;BME280;49577;49.872;6.190;2024-01-30T03:39:07;100742.16;;;1.13;85.91
63447;BME280;49577;49.872;6.190;2024-01-30T03:41:32;100744.57;;;1.14;86.28
63447;BME280;49577;49.872;6.190;2024-01-30T03:43:57;100745.73;;;1.19;86.50
63447;BME280;49577;49.872;6.190;2024-01-30T03:46:23;100740.39;;;1.22;86.42
63447;BME280;49577;49.872;6.190;2024-01-30T03:48:48;100744.15;;;1.26;86.54
63447;BME280;49577;49.872;6.190;2024-01-30T03:51:14;100739.64;;;1.31;86.53
63447;BME280;49577;49.872;6.190;2024-01-30T03:53:39;100741.35;;;1.35;86.38
63447;BME280;49577;49.872;6.190;2024-01-30T03:56:05;100742.20;;;1.36;86.37
63447;BME280;49577;49.872;6.190;2024-01-30T03:58:30;100743.41;;;1.33;85.96
63447;BME280;49577;49.872;6.190;2024-01-30T04:00:55;100745.35;;;1.27;86.09
63447;BME280;49577;49.872;6.190;2024-01-30T04:03:21;100751.21;;;1.24;86.36
63447;BME280;49577;49.872;6.190;2024-01-30T04:05:46;100749.66;;;1.23;86.60
63447;BME280;49577;49.872;6.190;2024-01-30T04:08:11;100749.17;;;1.21;86.45
63447;BME280;49577;49.872;6.190;2024-01-30T04:10:36;100754.85;;;1.21;86.49
63447;BME280;49577;49.872;6.190;2024-01-30T04:13:02;100751.41;;;1.21;86.70
63447;BME280;49577;49.872;6.190;2024-01-30T04:15:27;100748.83;;;1.22;87.04
63447;BME280;49577;49.872;6.190;2024-01-30T04:17:53;100747.09;;;1.25;87.02
63447;BME280;49577;49.872;6.190;2024-01-30T04:20:18;100745.88;;;1.27;87.07
63447;BME280;49577;49.872;6.190;2024-01-30T04:22:44;100741.37;;;1.29;87.06
63447;BME280;49577;49.872;6.190;2024-01-30T04:25:09;100744.30;;;1.28;86.89
63447;BME280;49577;49.872;6.190;2024-01-30T04:27:34;100747.77;;;1.26;86.96
63447;BME280;49577;49.872;6.190;2024-01-30T04:30:00;100745.70;;;1.25;87.00
63447;BME280;49577;49.872;6.190;2024-01-30T04:32:25;100744.84;;;1.24;87.14
63447;BME280;49577;49.872;6.190;2024-01-30T04:34:50;100752.41;;;1.24;87.36
63447;BME280;49577;49.872;6.190;2024-01-30T04:37:15;100749.14;;;1.24;87.35
63447;BME280;49577;49.872;6.190;2024-01-30T04:39:40;100751.23;;;1.23;87.37
63447;BME280;49577;49.872;6.190;2024-01-30T04:42:06;100751.75;;;1.22;87.25
63447;BME280;49577;49.872;6.190;2024-01-30T04:44:31;100750.90;;;1.21;87.25
63447;BME280;49577;49.872;6.190;2024-01-30T04:46:56;100749.00;;;1.21;87.42
63447;BME280;49577;49.872;6.190;2024-01-30T04:49:24;100748.66;;;1.21;87.45
63447;BME280;49577;49.872;6.190;2024-01-30T04:51:49;100753.65;;;1.22;87.48
63447;BME280;49577;49.872;6.190;2024-01-30T04:54:14;100758.63;;;1.23;87.70
63447;BME280;49577;49.872;6.190;2024-01-30T04:56:39;100757.06;;;1.25;87.67
63447;BME280;49577;49.872;6.190;2024-01-30T04:59:05;100755.16;;;1.28;87.91
63447;BME280;49577;49.872;6.190;2024-01-30T05:01:30;100755.48;;;1.29;87.77
63447;BME280;49577;49.872;6.190;2024-01-30T05:03:55;100753.59;;;1.29;87.56
63447;BME280;49577;49.872;6.190;2024-01-30T05:06:24;100754.64;;;1.27;87.38
63447;BME280;49577;49.872;6.190;2024-01-30T05:08:49;100749.66;;;1.24;87.26
63447;BME280;49577;49.872;6.190;2024-01-30T05:11:14;100750.36;;;1.23;87.20
63447;BME280;49577;49.872;6.190;2024-01-30T05:13:40;100755.55;;;1.20;87.15
63447;BME280;49577;49.872;6.190;2024-01-30T05:16:05;100760.36;;;1.20;87.51
63447;BME280;49577;49.872;6.190;2024-01-30T05:18:30;100759.63;;;1.28;88.29
63447;BME280;49577;49.872;6.190;2024-01-30T05:20:55;100756.28;;;1.37;88.31
63447;BME280;49577;49.872;6.190;2024-01-30T05:23:21;100754.54;;;1.41;87.86
63447;BME280;49577;49.872;6.190;2024-01-30T05:25:46;100754.34;;;1.46;87.89
63447;BME280;49577;49.872;6.190;2024-01-30T05:28:11;100755.65;;;1.54;88.08
63447;BME280;49577;49.872;6.190;2024-01-30T05:30:36;100753.38;;;1.59;87.88
63447;BME280;49577;49.872;6.190;2024-01-30T05:33:01;100750.46;;;1.58;87.30
63447;BME280;49577;49.872;6.190;2024-01-30T05:35:27;100746.36;;;1.54;87.17
63447;BME280;49577;49.872;6.190;2024-01-30T05:37:52;100749.67;;;1.48;86.84
63447;BME280;49577;49.872;6.190;2024-01-30T05:40:18;100748.52;;;1.43;86.89
63447;BME280;49577;49.872;6.190;2024-01-30T05:42:43;100757.48;;;1.38;87.11
63447;BME280;49577;49.872;6.190;2024-01-30T05:45:09;100764.21;;;1.37;87.44
63447;BME280;49577;49.872;6.190;2024-01-30T05:47:34;100766.98;;;1.34;87.30
63447;BME280;49577;49.872;6.190;2024-01-30T05:50:00;100764.23;;;1.36;88.07
63447;BME280;49577;49.872;6.190;2024-01-30T05:52:25;100759.02;;;1.42;88.16
63447;BME280;49577;49.872;6.190;2024-01-30T05:54:50;100762.13;;;1.39;87.63
63447;BME280;49577;49.872;6.190;2024-01-30T05:57:16;100757.17;;;1.35;87.34
63447;BME280;49577;49.872;6.190;2024-01-30T05:59:41;100755.32;;;1.29;87.38
63447;BME280;49577;49.872;6.190;2024-01-30T06:02:06;100752.23;;;1.27;87.77
63447;BME280;49577;49.872;6.190;2024-01-30T06:04:31;100749.66;;;1.25;87.80
63447;BME280;49577;49.872;6.190;2024-01-30T06:06:57;100744.86;;;1.22;87.67
63447;BME280;49577;49.872;6.190;2024-01-30T06:09:22;100741.97;;;1.17;87.55
63447;BME280;49577;49.872;6.190;2024-01-30T06:11:47;100747.14;;;1.14;87.66
63447;BME280;49577;49.872;6.190;2024-01-30T06:14:12;100752.67;;;1.12;87.65
63447;BME280;49577;49.872;6.190;2024-01-30T06:16:38;100756.47;;;1.09;87.79
63447;BME280;49577;49.872;6.190;2024-01-30T06:19:03;100757.86;;;1.08;87.70
63447;BME280;49577;49.872;6.190;2024-01-30T06:21:28;100754.93;;;1.07;87.89
63447;BME280;49577;49.872;6.190;2024-01-30T06:23:53;100753.71;;;1.07;87.76
63447;BME280;49577;49.872;6.190;2024-01-30T06:26:19;100747.36;;;1.07;87.96
63447;BME280;49577;49.872;6.190;2024-01-30T06:28:44;100745.65;;;1.09;87.95
63447;BME280;49577;49.872;6.190;2024-01-30T06:31:09;100748.90;;;1.09;87.68
63447;BME280;49577;49.872;6.190;2024-01-30T06:33:34;100746.48;;;1.10;87.81
63447;BME280;49577;49.872;6.190;2024-01-30T06:36:00;100755.08;;;1.13;88.04
63447;BME280;49577;49.872;6.190;2024-01-30T06:38:25;100760.90;;;1.15;88.03
63447;BME280;49577;49.872;6.190;2024-01-30T06:40:50;100761.91;;;1.20;88.17
63447;BME280;49577;49.872;6.190;2024-01-30T06:43:15;100755.51;;;1.27;88.14
63447;BME280;49577;49.872;6.190;2024-01-30T06:45:40;100753.77;;;1.30;87.90
63447;BME280;49577;49.872;6.190;2024-01-30T06:48:07;100747.88;;;1.34;87.83
63447;BME280;49577;49.872;6.190;2024-01-30T06:50:32;100749.27;;;1.34;87.44
63447;BME280;49577;49.872;6.190;2024-01-30T06:52:57;100752.02;;;1.34;87.22
63447;BME280;49577;49.872;6.190;2024-01-30T06:55:23;100753.21;;;1.35;87.62
63447;BME280;49577;49.872;6.190;2024-01-30T06:57:48;100754.89;;;1.41;88.04
63447;BME280;49577;49.872;6.190;2024-01-30T07:00:13;100760.36;;;1.47;87.84
63447;BME280;49577;49.872;6.190;2024-01-30T07:02:39;100756.20;;;1.51;87.66
63447;BME280;49577;49.872;6.190;2024-01-30T07:05:05;100758.58;;;1.55;87.57
63447;BME280;49577;49.872;6.190;2024-01-30T07:07:30;100751.34;;;1.56;87.07
63447;BME280;49577;49.872;6.190;2024-01-30T07:09:55;100749.33;;;1.50;86.59
63447;BME280;49577;49.872;6.190;2024-01-30T07:12:21;100755.41;;;1.42;86.30
63447;BME280;49577;49.872;6.190;2024-01-30T07:14:47;100760.45;;;1.33;86.39
63447;BME280;49577;49.872;6.190;2024-01-30T07:17:12;100770.64;;;1.30;86.73
63447;BME280;49577;49.872;6.190;2024-01-30T07:19:37;100771.00;;;1.27;86.83
63447;BME280;49577;49.872;6.190;2024-01-30T07:22:03;100780.30;;;1.26;87.09
63447;BME280;49577;49.872;6.190;2024-01-30T07:24:28;100789.77;;;1.25;87.09
63447;BME280;49577;49.872;6.190;2024-01-30T07:26:53;100786.84;;;1.24;87.01
63447;BME280;49577;49.872;6.190;2024-01-30T07:29:19;100780.84;;;1.20;86.83
63447;BME280;49577;49.872;6.190;2024-01-30T07:31:44;100783.63;;;1.16;87.04
63447;BME280;49577;49.872;6.190;2024-01-30T07:34:09;100784.83;;;1.17;87.42
63447;BME280;49577;49.872;6.190;2024-01-30T07:36:34;100779.13;;;1.21;87.44
63447;BME280;49577;49.872;6.190;2024-01-30T07:39:00;100781.02;;;1.21;87.02
63447;BME280;49577;49.872;6.190;2024-01-30T07:41:25;100781.02;;;1.20;87.01
63447;BME280;49577;49.872;6.190;2024-01-30T07:43:50;100778.41;;;1.24;87.55
63447;BME280;49577;49.872;6.190;2024-01-30T07:46:15;100767.89;;;1.28;87.66
63447;BME280;49577;49.872;6.190;2024-01-30T07:48:41;100765.80;;;1.32;87.68
63447;BME280;49577;49.872;6.190;2024-01-30T07:51:06;100773.20;;;1.33;87.42
63447;BME280;49577;49.872;6.190;2024-01-30T07:53:31;100772.48;;;1.36;87.50
63447;BME280;49577;49.872;6.190;2024-01-30T07:55:56;100778.84;;;1.37;87.36
63447;BME280;49577;49.872;6.190;2024-01-30T07:58:22;100786.42;;;1.37;87.21
63447;BME280;49577;49.872;6.190;2024-01-30T08:00:48;100788.66;;;1.39;87.28
63447;BME280;49577;49.872;6.190;2024-01-30T08:03:13;100788.80;;;1.43;87.33
63447;BME280;49577;49.872;6.190;2024-01-30T08:05:41;100786.71;;;1.47;87.36
63447;BME280;49577;49.872;6.190;2024-01-30T08:08:06;100793.38;;;1.53;87.37
63447;BME280;49577;49.872;6.190;2024-01-30T08:10:31;100798.30;;;1.62;87.68
63447;BME280;49577;49.872;6.190;2024-01-30T08:12:57;100807.21;;;1.70;87.35
63447;BME280;49577;49.872;6.190;2024-01-30T08:15:22;100811.13;;;1.75;87.03
63447;BME280;49577;49.872;6.190;2024-01-30T08:17:47;100809.38;;;1.79;86.86
63447;BME280;49577;49.872;6.190;2024-01-30T08:20:12;100813.50;;;1.81;86.75
63447;BME280;49577;49.872;6.190;2024-01-30T08:22:38;100814.83;;;1.87;86.69
63447;BME280;49577;49.872;6.190;2024-01-30T08:25:05;100818.08;;;1.91;86.62
63447;BME280;49577;49.872;6.190;2024-01-30T08:27:30;100821.66;;;1.96;86.55
63447;BME280;49577;49.872;6.190;2024-01-30T08:29:55;100820.44;;;1.98;86.24
63447;BME280;49577;49.872;6.190;2024-01-30T08:32:20;100823.35;;;1.99;85.88
63447;BME280;49577;49.872;6.190;2024-01-30T08:34:46;100828.38;;;1.97;85.69
63447;BME280;49577;49.872;6.190;2024-01-30T08:37:11;100828.19;;;1.96;85.72
63447;BME280;49577;49.872;6.190;2024-01-30T08:39:37;100827.31;;;2.00;85.99
63447;BME280;49577;49.872;6.190;2024-01-30T08:42:02;100825.41;;;2.02;85.81
63447;BME280;49577;49.872;6.190;2024-01-30T08:44:27;100824.38;;;2.00;85.50
63447;BME280;49577;49.872;6.190;2024-01-30T08:46:53;100818.21;;;1.95;85.43
63447;BME280;49577;49.872;6.190;2024-01-30T08:49:19;100815.69;;;1.88;85.28
63447;BME280;49577;49.872;6.190;2024-01-30T08:51:45;100813.14;;;1.83;85.49
63447;BME280;49577;49.872;6.190;2024-01-30T08:54:10;100809.71;;;1.81;85.58
63447;BME280;49577;49.872;6.190;2024-01-30T08:56:36;100811.10;;;1.80;85.74
63447;BME280;49577;49.872;6.190;2024-01-30T08:59:01;100810.23;;;1.82;85.72
63447;BME280;49577;49.872;6.190;2024-01-30T09:01:26;100822.61;;;1.84;85.72
63447;BME280;49577;49.872;6.190;2024-01-30T09:03:52;100819.98;;;1.90;85.83
63447;BME280;49577;49.872;6.190;2024-01-30T09:06:18;100816.10;;;2.01;86.02
63447;BME280;49577;49.872;6.190;2024-01-30T09:08:43;100814.95;;;2.15;85.93
63447;BME280;49577;49.872;6.190;2024-01-30T09:11:12;100818.44;;;2.28;85.96
63447;BME280;49577;49.872;6.190;2024-01-30T09:13:37;100834.35;;;2.42;85.68
63447;BME280;49577;49.872;6.190;2024-01-30T09:16:02;100841.61;;;2.57;85.63
63447;BME280;49577;49.872;6.190;2024-01-30T09:18:28;100843.02;;;2.70;85.39
63447;BME280;49577;49.872;6.190;2024-01-30T09:20:53;100837.23;;;2.79;85.00
63447;BME280;49577;49.872;6.190;2024-01-30T09:23:18;100836.27;;;2.87;84.58
63447;BME280;49577;49.872;6.190;2024-01-30T09:25:44;100837.12;;;2.89;83.98
63447;BME280;49577;49.872;6.190;2024-01-30T09:28:09;100838.84;;;2.90;83.80
63447;BME280;49577;49.872;6.190;2024-01-30T09:30:35;100837.30;;;2.88;83.69
63447;BME280;49577;49.872;6.190;2024-01-30T09:33:00;100841.63;;;2.88;83.71
63447;BME280;49577;49.872;6.190;2024-01-30T09:35:25;100844.73;;;2.89;83.70
63447;BME280;49577;49.872;6.190;2024-01-30T09:37:50;100853.78;;;2.96;83.88
63447;BME280;49577;49.872;6.190;2024-01-30T09:40:17;100858.98;;;3.07;83.93
63447;BME280;49577;49.872;6.190;2024-01-30T09:42:44;100872.83;;;3.20;84.10
63447;BME280;49577;49.872;6.190;2024-01-30T09:45:11;100875.73;;;3.35;84.07
63447;BME280;49577;49.872;6.190;2024-01-30T09:47:42;100878.66;;;3.49;83.64
63447;BME280;49577;49.872;6.190;2024-01-30T09:50:09;100880.42;;;3.61;83.37
63447;BME280;49577;49.872;6.190;2024-01-30T09:52:34;100881.36;;;3.67;83.05
63447;BME280;49577;49.872;6.190;2024-01-30T09:55:00;100875.04;;;3.74;83.06
63447;BME280;49577;49.872;6.190;2024-01-30T09:57:26;100875.30;;;3.80;82.93
63447;BME280;49577;49.872;6.190;2024-01-30T09:59:51;100877.32;;;3.84;82.49
63447;BME280;49577;49.872;6.190;2024-01-30T10:02:19;100870.68;;;3.89;82.32
63447;BME280;49577;49.872;6.190;2024-01-30T10:04:44;100862.87;;;3.91;82.14
63447;BME280;49577;49.872;6.190;2024-01-30T10:07:10;100869.05;;;3.93;82.25
63447;BME280;49577;49.872;6.190;2024-01-30T10:09:36;100872.84;;;3.94;81.93
63447;BME280;49577;49.872;6.190;2024-01-30T10:12:01;100873.38;;;3.93;81.69
63447;BME280;49577;49.872;6.190;2024-01-30T10:14:28;100872.00;;;3.92;81.76
63447;BME280;49577;49.872;6.190;2024-01-30T10:16:55;100872.22;;;4.01;81.89
63447;BME280;49577;49.872;6.190;2024-01-30T10:19:20;100871.15;;;4.14;81.72
63447;BME280;49577;49.872;6.190;2024-01-30T10:21:46;100864.63;;;4.32;81.56
63447;BME280;49577;49.872;6.190;2024-01-30T10:24:11;100863.85;;;4.56;81.10
63447;BME280;49577;49.872;6.190;2024-01-30T10:26:38;100864.17;;;4.95;80.57
63447;BME280;49577;49.872;6.190;2024-01-30T10:29:04;100860.13;;;5.23;79.64
63447;BME280;49577;49.872;6.190;2024-01-30T10:31:29;100851.60;;;5.33;78.87
63447;BME280;49577;49.872;6.190;2024-01-30T10:33:54;100848.33;;;5.48;78.73
63447;BME280;49577;49.872;6.190;2024-01-30T10:36:19;100847.77;;;5.66;78.24
63447;BME280;49577;49.872;6.190;2024-01-30T10:38:49;100846.04;;;5.73;77.89
63447;BME280;49577;49.872;6.190;2024-01-30T10:41:16;100842.08;;;5.71;77.55
63447;BME280;49577;49.872;6.190;2024-01-30T10:43:46;100838.80;;;5.71;77.31
63447;BME280;49577;49.872;6.190;2024-01-30T10:46:18;100835.85;;;5.64;77.05
63447;BME280;49577;49.872;6.190;2024-01-30T10:48:50;100834.17;;;5.53;77.04
63447;BME280;49577;49.872;6.190;2024-01-30T10:51:20;100833.74;;;5.42;77.23
63447;BME280;49577;49.872;6.190;2024-01-30T10:53:47;100832.27;;;5.38;77.52
63447;BME280;49577;49.872;6.190;2024-01-30T10:56:14;100842.16;;;5.37;77.37
63447;BME280;49577;49.872;6.190;2024-01-30T10:58:41;100847.56;;;5.36;77.74
63447;BME280;49577;49.872;6.190;2024-01-30T11:01:06;100849.20;;;5.40;78.07
63447;BME280;49577;49.872;6.190;2024-01-30T11:03:32;100849.10;;;5.44;78.11
63447;BME280;49577;49.872;6.190;2024-01-30T11:06:00;100839.94;;;5.43;78.14
63447;BME280;49577;49.872;6.190;2024-01-30T11:08:26;100838.02;;;5.44;78.34
63447;BME280;49577;49.872;6.190;2024-01-30T11:10:56;100837.73;;;5.49;78.57
63447;BME280;49577;49.872;6.190;2024-01-30T11:13:30;100839.36;;;5.54;78.17
63447;BME280;49577;49.872;6.190;2024-01-30T11:15:59;100843.95;;;5.57;78.28
63447;BME280;49577;49.872;6.190;2024-01-30T11:18:25;100836.48;;;5.58;78.29
63447;BME280;49577;49.872;6.190;2024-01-30T11:20:51;100835.99;;;5.57;78.29
63447;BME280;49577;49.872;6.190;2024-01-30T11:23:16;100837.38;;;5.57;78.30
63447;BME280;49577;49.872;6.190;2024-01-30T11:25:43;100832.80;;;5.60;78.42
63447;BME280;49577;49.872;6.190;2024-01-30T11:28:13;100828.58;;;5.71;78.57
63447;BME280;49577;49.872;6.190;2024-01-30T11:30:38;100830.77;;;5.89;78.55
63447;BME280;49577;49.872;6.190;2024-01-30T11:35:30;100829.14;;;6.27;78.01
63447;BME280;49577;49.872;6.190;2024-01-30T11:37:55;100828.17;;;6.45;77.74
63447;BME280;49577;49.872;6.190;2024-01-30T11:40:22;100824.88;;;6.63;77.48
63447;BME280;49577;49.872;6.190;2024-01-30T11:42:49;100820.99;;;6.79;76.97
63447;BME280;49577;49.872;6.190;2024-01-30T11:45:14;100816.14;;;6.91;76.52
63447;BME280;49577;49.872;6.190;2024-01-30T11:47:40;100815.05;;;6.99;75.77
63447;BME280;49577;49.872;6.190;2024-01-30T11:50:05;100823.38;;;7.17;75.93
63447;BME280;49577;49.872;6.190;2024-01-30T11:52:32;100823.55;;;7.46;75.77
63447;BME280;49577;49.872;6.190;2024-01-30T11:54:58;100821.39;;;7.71;75.56
63447;BME280;49577;49.872;6.190;2024-01-30T11:57:23;100816.40;;;7.91;75.63
63447;BME280;49577;49.872;6.190;2024-01-30T11:59:48;100814.73;;;8.20;75.01
63447;BME280;49577;49.872;6.190;2024-01-30T12:02:16;100811.86;;;8.39;74.63
63447;BME280;49577;49.872;6.190;2024-01-30T12:04:44;100809.17;;;8.41;73.66
63447;BME280;49577;49.872;6.190;2024-01-30T12:07:10;100809.34;;;8.36;73.28
63447;BME280;49577;49.872;6.190;2024-01-30T12:09:35;100803.30;;;8.29;73.03
63447;BME280;49577;49.872;6.190;2024-01-30T12:12:00;100807.28;;;8.19;73.07
63447;BME280;49577;49.872;6.190;2024-01-30T12:14:26;100811.45;;;8.09;73.43
63447;BME280;49577;49.872;6.190;2024-01-30T12:16:51;100814.67;;;8.01;73.42
63447;BME280;49577;49.872;6.190;2024-01-30T12:19:26;100817.87;;;7.94;73.60
63447;BME280;49577;49.872;6.190;2024-01-30T12:21:57;100821.48;;;7.78;73.55
63447;BME280;49577;49.872;6.190;2024-01-30T12:24:24;100817.89;;;7.66;74.13
63447;BME280;49577;49.872;6.190;2024-01-30T12:26:49;100819.77;;;7.62;74.41
63447;BME280;49577;49.872;6.190;2024-01-30T12:29:15;100822.46;;;7.59;74.51
63447;BME280;49577;49.872;6.190;2024-01-30T12:31:41;100820.34;;;7.54;74.64
63447;BME280;49577;49.872;6.190;2024-01-30T12:34:07;100815.40;;;7.51;74.86
63447;BME280;49577;49.872;6.190;2024-01-30T12:36:32;100813.35;;;7.50;75.17
63447;BME280;49577;49.872;6.190;2024-01-30T12:38:57;100811.57;;;7.51;75.45
63447;BME280;49577;49.872;6.190;2024-01-30T12:41:23;100807.29;;;7.54;75.33
63447;BME280;49577;49.872;6.190;2024-01-30T12:43:53;100802.52;;;7.57;75.61
63447;BME280;49577;49.872;6.190;2024-01-30T12:46:18;100800.06;;;7.57;75.52
63447;BME280;49577;49.872;6.190;2024-01-30T12:48:43;100804.64;;;7.56;75.74
63447;BME280;49577;49.872;6.190;2024-01-30T12:51:08;100802.69;;;7.57;75.89
63447;BME280;49577;49.872;6.190;2024-01-30T12:53:34;100801.01;;;7.61;76.07